sensor_id;sensor_type;location;lat;lon;timestamp;P1;durP1;ratioP1;P2;durP2;ratioP2
61356;SDS011;47227;46.752;23.576;2023-01-08T00:01:07;106.90;;;17.50;;
61356;SDS011;47227;46.752;23.576;2023-01-08T00:03:45;112.30;;;21.50;;
61356;SDS011;47227;46.752;23.576;2023-01-08T00:06:13;72.30;;;19.30;;
61356;SDS011;47227;46.752;23.576;2023-01-08T00:08:42;92.50;;;22.70;;
61356;SDS011;47227;46.752;23.576;2023-01-08T00:11:10;156.30;;;24.90;;
61356;SDS011;47227;46.752;23.576;2023-01-08T00:13:37;178.80;;;24.80;;
61356;SDS011;47227;46.752;23.576;2023-01-08T00:16:05;83.30;;;16.30;;
61356;SDS011;47227;46.752;23.576;2023-01-08T00:18:35;82.90;;;16.70;;
61356;SDS011;47227;46.752;23.576;2023-01-08T00:21:01;94.30;;;17.80;;
61356;SDS011;47227;46.752;23.576;2023-01-08T00:23:29;59.90;;;16.00;;
61356;SDS011;47227;46.752;23.576;2023-01-08T00:25:55;57.90;;;15.60;;
61356;SDS011;47227;46.752;23.576;2023-01-08T00:28:22;85.80;;;15.60;;
61356;SDS011;47227;46.752;23.576;2023-01-08T00:30:48;139.20;;;18.50;;
61356;SDS011;47227;46.752;23.576;2023-01-08T00:33:15;99.20;;;16.60;;
61356;SDS011;47227;46.752;23.576;2023-01-08T00:35:42;217.60;;;20.50;;
61356;SDS011;47227;46.752;23.576;2023-01-08T00:38:09;177.70;;;20.90;;
61356;SDS011;47227;46.752;23.576;2023-01-08T00:40:35;191.20;;;20.10;;
61356;SDS011;47227;46.752;23.576;2023-01-08T00:43:03;115.10;;;19.40;;
61356;SDS011;47227;46.752;23.576;2023-01-08T00:45:30;181.40;;;22.90;;
61356;SDS011;47227;46.752;23.576;2023-01-08T00:47:57;136.70;;;22.70;;
61356;SDS011;47227;46.752;23.576;2023-01-08T00:50:24;157.60;;;23.40;;
61356;SDS011;47227;46.752;23.576;2023-01-08T00:52:51;173.70;;;23.90;;
61356;SDS011;47227;46.752;23.576;2023-01-08T00:55:17;104.00;;;22.30;;
61356;SDS011;47227;46.752;23.576;2023-01-08T00:57:44;547.20;;;38.10;;
61356;SDS011;47227;46.752;23.576;2023-01-08T01:00:11;281.20;;;29.70;;
61356;SDS011;47227;46.752;23.576;2023-01-08T01:02:40;693.10;;;45.10;;
61356;SDS011;47227;46.752;23.576;2023-01-08T01:05:07;168.50;;;26.20;;
61356;SDS011;47227;46.752;23.576;2023-01-08T01:07:35;384.90;;;28.70;;
61356;SDS011;47227;46.752;23.576;2023-01-08T01:10:02;268.40;;;26.20;;
61356;SDS011;47227;46.752;23.576;2023-01-08T01:12:29;233.60;;;24.60;;
61356;SDS011;47227;46.752;23.576;2023-01-08T01:14:56;312.20;;;24.60;;
61356;SDS011;47227;46.752;23.576;2023-01-08T01:17:23;216.80;;;21.50;;
61356;SDS011;47227;46.752;23.576;2023-01-08T01:19:49;210.90;;;24.50;;
61356;SDS011;47227;46.752;23.576;2023-01-08T01:22:16;154.80;;;21.00;;
61356;SDS011;47227;46.752;23.576;2023-01-08T01:24:42;152.10;;;21.40;;
61356;SDS011;47227;46.752;23.576;2023-01-08T01:27:09;120.00;;;20.40;;
61356;SDS011;47227;46.752;23.576;2023-01-08T01:29:35;179.60;;;20.80;;
61356;SDS011;47227;46.752;23.576;2023-01-08T01:32:02;157.00;;;20.40;;
61356;SDS011;47227;46.752;23.576;2023-01-08T01:34:29;98.90;;;19.10;;
61356;SDS011;47227;46.752;23.576;2023-01-08T01:36:55;65.20;;;15.90;;
61356;SDS011;47227;46.752;23.576;2023-01-08T01:39:22;72.20;;;15.10;;
61356;SDS011;47227;46.752;23.576;2023-01-08T01:41:48;96.10;;;15.90;;
61356;SDS011;47227;46.752;23.576;2023-01-08T01:47:17;90.90;;;16.60;;
61356;SDS011;47227;46.752;23.576;2023-01-08T01:49:52;68.10;;;15.70;;
61356;SDS011;47227;46.752;23.576;2023-01-08T01:52:25;109.60;;;16.60;;
61356;SDS011;47227;46.752;23.576;2023-01-08T01:54:55;89.40;;;16.80;;
61356;SDS011;47227;46.752;23.576;2023-01-08T01:57:24;115.60;;;18.60;;
61356;SDS011;47227;46.752;23.576;2023-01-08T01:59:51;145.10;;;18.80;;
61356;SDS011;47227;46.752;23.576;2023-01-08T02:02:20;145.70;;;20.80;;
61356;SDS011;47227;46.752;23.576;2023-01-08T02:04:49;336.20;;;26.70;;
61356;SDS011;47227;46.752;23.576;2023-01-08T02:07:23;258.50;;;24.80;;
61356;SDS011;47227;46.752;23.576;2023-01-08T02:10:15;219.30;;;24.10;;
61356;SDS011;47227;46.752;23.576;2023-01-08T02:12:46;203.20;;;21.00;;
61356;SDS011;47227;46.752;23.576;2023-01-08T02:15:25;157.80;;;21.30;;
61356;SDS011;47227;46.752;23.576;2023-01-08T02:18:03;432.70;;;31.30;;
61356;SDS011;47227;46.752;23.576;2023-01-08T02:20:35;374.80;;;26.10;;
61356;SDS011;47227;46.752;23.576;2023-01-08T02:23:09;279.00;;;26.30;;
61356;SDS011;47227;46.752;23.576;2023-01-08T02:31:13;167.10;;;20.30;;
61356;SDS011;47227;46.752;23.576;2023-01-08T02:33:41;167.60;;;19.40;;
61356;SDS011;47227;46.752;23.576;2023-01-08T02:39:02;202.20;;;21.20;;
61356;SDS011;47227;46.752;23.576;2023-01-08T02:41:43;171.70;;;19.00;;
61356;SDS011;47227;46.752;23.576;2023-01-08T02:47:23;154.80;;;20.70;;
61356;SDS011;47227;46.752;23.576;2023-01-08T02:50:00;131.10;;;18.90;;
61356;SDS011;47227;46.752;23.576;2023-01-08T02:52:35;143.40;;;19.90;;
61356;SDS011;47227;46.752;23.576;2023-01-08T02:55:07;93.50;;;17.40;;
61356;SDS011;47227;46.752;23.576;2023-01-08T02:57:36;156.40;;;20.90;;
61356;SDS011;47227;46.752;23.576;2023-01-08T03:00:04;128.20;;;18.40;;
61356;SDS011;47227;46.752;23.576;2023-01-08T03:02:31;166.10;;;20.60;;
61356;SDS011;47227;46.752;23.576;2023-01-08T03:05:02;117.30;;;20.00;;
61356;SDS011;47227;46.752;23.576;2023-01-08T03:07:34;125.10;;;19.80;;
61356;SDS011;47227;46.752;23.576;2023-01-08T03:10:01;165.10;;;20.60;;
61356;SDS011;47227;46.752;23.576;2023-01-08T03:12:39;133.70;;;20.20;;
61356;SDS011;47227;46.752;23.576;2023-01-08T03:15:12;114.60;;;20.10;;
61356;SDS011;47227;46.752;23.576;2023-01-08T03:17:42;179.70;;;21.90;;
61356;SDS011;47227;46.752;23.576;2023-01-08T03:20:13;175.30;;;22.90;;
61356;SDS011;47227;46.752;23.576;2023-01-08T03:22:44;117.30;;;21.40;;
61356;SDS011;47227;46.752;23.576;2023-01-08T03:25:14;80.50;;;19.60;;
61356;SDS011;47227;46.752;23.576;2023-01-08T03:27:46;97.70;;;19.40;;
61356;SDS011;47227;46.752;23.576;2023-01-08T03:30:16;84.60;;;18.80;;
61356;SDS011;47227;46.752;23.576;2023-01-08T03:32:44;93.90;;;18.70;;
61356;SDS011;47227;46.752;23.576;2023-01-08T03:35:13;124.70;;;18.70;;
61356;SDS011;47227;46.752;23.576;2023-01-08T03:37:45;81.50;;;17.30;;
61356;SDS011;47227;46.752;23.576;2023-01-08T03:40:24;79.30;;;18.10;;
61356;SDS011;47227;46.752;23.576;2023-01-08T03:42:54;71.00;;;15.90;;
61356;SDS011;47227;46.752;23.576;2023-01-08T03:45:22;101.30;;;16.90;;
61356;SDS011;47227;46.752;23.576;2023-01-08T03:47:51;52.70;;;15.00;;
61356;SDS011;47227;46.752;23.576;2023-01-08T03:50:20;56.00;;;16.20;;
61356;SDS011;47227;46.752;23.576;2023-01-08T03:52:51;74.70;;;16.50;;
61356;SDS011;47227;46.752;23.576;2023-01-08T03:55:17;39.30;;;15.10;;
61356;SDS011;47227;46.752;23.576;2023-01-08T03:57:44;61.60;;;14.70;;
61356;SDS011;47227;46.752;23.576;2023-01-08T04:00:11;64.60;;;15.70;;
61356;SDS011;47227;46.752;23.576;2023-01-08T04:02:38;61.70;;;16.40;;
61356;SDS011;47227;46.752;23.576;2023-01-08T04:05:07;101.60;;;17.70;;
61356;SDS011;47227;46.752;23.576;2023-01-08T04:07:35;105.50;;;15.60;;
61356;SDS011;47227;46.752;23.576;2023-01-08T04:10:01;82.10;;;16.80;;
61356;SDS011;47227;46.752;23.576;2023-01-08T04:12:31;72.90;;;17.00;;
61356;SDS011;47227;46.752;23.576;2023-01-08T04:14:57;130.00;;;17.00;;
61356;SDS011;47227;46.752;23.576;2023-01-08T04:17:24;63.10;;;17.70;;
61356;SDS011;47227;46.752;23.576;2023-01-08T04:19:50;49.30;;;15.80;;
61356;SDS011;47227;46.752;23.576;2023-01-08T04:22:17;66.60;;;18.20;;
61356;SDS011;47227;46.752;23.576;2023-01-08T04:24:43;63.20;;;17.80;;
61356;SDS011;47227;46.752;23.576;2023-01-08T04:27:10;72.30;;;17.00;;
61356;SDS011;47227;46.752;23.576;2023-01-08T04:29:37;64.30;;;17.10;;
61356;SDS011;47227;46.752;23.576;2023-01-08T04:32:03;68.90;;;17.80;;
61356;SDS011;47227;46.752;23.576;2023-01-08T04:34:30;78.10;;;20.50;;
61356;SDS011;47227;46.752;23.576;2023-01-08T04:36:56;121.40;;;18.50;;
61356;SDS011;47227;46.752;23.576;2023-01-08T04:39:23;61.60;;;18.30;;
61356;SDS011;47227;46.752;23.576;2023-01-08T04:41:50;108.60;;;20.30;;
61356;SDS011;47227;46.752;23.576;2023-01-08T04:44:16;63.10;;;16.90;;
61356;SDS011;47227;46.752;23.576;2023-01-08T04:46:43;88.30;;;16.90;;
61356;SDS011;47227;46.752;23.576;2023-01-08T04:49:10;39.40;;;15.90;;
61356;SDS011;47227;46.752;23.576;2023-01-08T04:51:37;48.50;;;15.30;;
61356;SDS011;47227;46.752;23.576;2023-01-08T04:54:04;38.70;;;14.30;;
61356;SDS011;47227;46.752;23.576;2023-01-08T04:56:31;48.20;;;14.60;;
61356;SDS011;47227;46.752;23.576;2023-01-08T04:58:57;68.80;;;14.70;;
61356;SDS011;47227;46.752;23.576;2023-01-08T05:01:25;69.10;;;14.50;;
61356;SDS011;47227;46.752;23.576;2023-01-08T05:03:53;66.90;;;14.20;;
61356;SDS011;47227;46.752;23.576;2023-01-08T05:06:22;118.60;;;14.90;;
61356;SDS011;47227;46.752;23.576;2023-01-08T05:08:49;77.60;;;15.20;;
61356;SDS011;47227;46.752;23.576;2023-01-08T05:11:16;72.30;;;15.10;;
61356;SDS011;47227;46.752;23.576;2023-01-08T05:13:46;84.00;;;13.30;;
61356;SDS011;47227;46.752;23.576;2023-01-08T05:16:14;77.70;;;14.20;;
61356;SDS011;47227;46.752;23.576;2023-01-08T05:18:41;80.20;;;15.90;;
61356;SDS011;47227;46.752;23.576;2023-01-08T05:21:08;70.30;;;14.70;;
61356;SDS011;47227;46.752;23.576;2023-01-08T05:23:35;81.20;;;15.20;;
61356;SDS011;47227;46.752;23.576;2023-01-08T05:26:03;114.60;;;15.60;;
61356;SDS011;47227;46.752;23.576;2023-01-08T05:28:31;54.90;;;15.00;;
61356;SDS011;47227;46.752;23.576;2023-01-08T05:30:58;70.80;;;15.50;;
61356;SDS011;47227;46.752;23.576;2023-01-08T05:33:25;63.50;;;14.80;;
61356;SDS011;47227;46.752;23.576;2023-01-08T05:35:53;80.60;;;15.90;;
61356;SDS011;47227;46.752;23.576;2023-01-08T05:38:21;84.60;;;16.70;;
61356;SDS011;47227;46.752;23.576;2023-01-08T05:40:50;76.10;;;15.40;;
61356;SDS011;47227;46.752;23.576;2023-01-08T05:43:17;143.10;;;17.60;;
61356;SDS011;47227;46.752;23.576;2023-01-08T05:45:44;241.70;;;20.00;;
61356;SDS011;47227;46.752;23.576;2023-01-08T05:48:11;195.90;;;18.50;;
61356;SDS011;47227;46.752;23.576;2023-01-08T05:50:37;178.70;;;16.90;;
61356;SDS011;47227;46.752;23.576;2023-01-08T05:53:05;182.50;;;18.90;;
61356;SDS011;47227;46.752;23.576;2023-01-08T05:55:33;297.20;;;20.40;;
61356;SDS011;47227;46.752;23.576;2023-01-08T05:58:00;248.60;;;20.00;;
61356;SDS011;47227;46.752;23.576;2023-01-08T06:00:28;201.50;;;16.50;;
61356;SDS011;47227;46.752;23.576;2023-01-08T06:02:54;113.70;;;15.40;;
61356;SDS011;47227;46.752;23.576;2023-01-08T06:05:21;101.40;;;16.40;;
61356;SDS011;47227;46.752;23.576;2023-01-08T06:07:47;50.70;;;15.30;;
61356;SDS011;47227;46.752;23.576;2023-01-08T06:10:14;81.40;;;14.00;;
61356;SDS011;47227;46.752;23.576;2023-01-08T06:12:40;60.10;;;14.30;;
61356;SDS011;47227;46.752;23.576;2023-01-08T06:15:08;89.70;;;14.20;;
61356;SDS011;47227;46.752;23.576;2023-01-08T06:17:36;91.50;;;14.20;;
61356;SDS011;47227;46.752;23.576;2023-01-08T06:20:02;74.80;;;14.60;;
61356;SDS011;47227;46.752;23.576;2023-01-08T06:22:29;98.60;;;14.00;;
61356;SDS011;47227;46.752;23.576;2023-01-08T06:24:56;55.20;;;14.10;;
61356;SDS011;47227;46.752;23.576;2023-01-08T06:27:23;68.70;;;14.60;;
61356;SDS011;47227;46.752;23.576;2023-01-08T06:29:49;78.20;;;14.60;;
61356;SDS011;47227;46.752;23.576;2023-01-08T06:32:16;102.50;;;13.30;;
61356;SDS011;47227;46.752;23.576;2023-01-08T06:34:42;85.50;;;14.70;;
61356;SDS011;47227;46.752;23.576;2023-01-08T06:37:09;94.60;;;15.10;;
61356;SDS011;47227;46.752;23.576;2023-01-08T06:39:36;116.10;;;16.60;;
61356;SDS011;47227;46.752;23.576;2023-01-08T06:42:10;72.50;;;16.00;;
61356;SDS011;47227;46.752;23.576;2023-01-08T06:44:36;74.60;;;15.20;;
61356;SDS011;47227;46.752;23.576;2023-01-08T06:47:03;116.80;;;17.00;;
61356;SDS011;47227;46.752;23.576;2023-01-08T06:49:29;148.40;;;18.60;;
61356;SDS011;47227;46.752;23.576;2023-01-08T06:51:56;105.30;;;16.30;;
61356;SDS011;47227;46.752;23.576;2023-01-08T06:54:23;107.90;;;16.70;;
61356;SDS011;47227;46.752;23.576;2023-01-08T06:56:49;146.80;;;17.90;;
61356;SDS011;47227;46.752;23.576;2023-01-08T06:59:20;143.90;;;18.30;;
61356;SDS011;47227;46.752;23.576;2023-01-08T07:01:47;123.00;;;19.50;;
61356;SDS011;47227;46.752;23.576;2023-01-08T07:04:14;243.80;;;21.80;;
61356;SDS011;47227;46.752;23.576;2023-01-08T07:06:40;230.60;;;23.60;;
61356;SDS011;47227;46.752;23.576;2023-01-08T07:09:09;430.50;;;28.90;;
61356;SDS011;47227;46.752;23.576;2023-01-08T07:11:38;123.10;;;19.10;;
61356;SDS011;47227;46.752;23.576;2023-01-08T07:14:05;114.40;;;16.60;;
61356;SDS011;47227;46.752;23.576;2023-01-08T07:16:31;150.40;;;16.60;;
61356;SDS011;47227;46.752;23.576;2023-01-08T07:18:58;142.40;;;16.50;;
61356;SDS011;47227;46.752;23.576;2023-01-08T07:21:25;91.30;;;16.10;;
61356;SDS011;47227;46.752;23.576;2023-01-08T07:23:51;105.10;;;16.70;;
61356;SDS011;47227;46.752;23.576;2023-01-08T07:26:19;113.30;;;16.90;;
61356;SDS011;47227;46.752;23.576;2023-01-08T07:28:46;146.30;;;19.20;;
61356;SDS011;47227;46.752;23.576;2023-01-08T07:31:12;83.60;;;15.50;;
61356;SDS011;47227;46.752;23.576;2023-01-08T07:33:43;80.40;;;15.30;;
61356;SDS011;47227;46.752;23.576;2023-01-08T07:36:10;60.50;;;17.50;;
61356;SDS011;47227;46.752;23.576;2023-01-08T07:38:36;94.70;;;15.70;;
61356;SDS011;47227;46.752;23.576;2023-01-08T07:41:03;86.80;;;17.70;;
61356;SDS011;47227;46.752;23.576;2023-01-08T07:43:30;91.60;;;16.10;;
61356;SDS011;47227;46.752;23.576;2023-01-08T07:45:56;83.30;;;15.50;;
61356;SDS011;47227;46.752;23.576;2023-01-08T07:48:23;127.30;;;16.40;;
61356;SDS011;47227;46.752;23.576;2023-01-08T07:50:49;98.20;;;16.80;;
61356;SDS011;47227;46.752;23.576;2023-01-08T07:53:16;104.50;;;17.10;;
61356;SDS011;47227;46.752;23.576;2023-01-08T07:55:43;68.00;;;16.30;;
61356;SDS011;47227;46.752;23.576;2023-01-08T07:58:11;163.30;;;19.60;;
61356;SDS011;47227;46.752;23.576;2023-01-08T08:00:38;156.90;;;17.70;;
61356;SDS011;47227;46.752;23.576;2023-01-08T08:03:06;83.70;;;18.00;;
61356;SDS011;47227;46.752;23.576;2023-01-08T08:05:36;133.50;;;18.60;;
61356;SDS011;47227;46.752;23.576;2023-01-08T08:08:07;144.30;;;18.80;;
61356;SDS011;47227;46.752;23.576;2023-01-08T08:10:35;101.20;;;18.80;;
61356;SDS011;47227;46.752;23.576;2023-01-08T08:13:03;124.00;;;19.20;;
61356;SDS011;47227;46.752;23.576;2023-01-08T08:15:29;164.90;;;20.10;;
61356;SDS011;47227;46.752;23.576;2023-01-08T08:17:56;126.00;;;18.90;;
61356;SDS011;47227;46.752;23.576;2023-01-08T08:20:23;94.30;;;18.50;;
61356;SDS011;47227;46.752;23.576;2023-01-08T08:22:50;51.80;;;16.30;;
61356;SDS011;47227;46.752;23.576;2023-01-08T08:25:16;73.50;;;16.90;;
61356;SDS011;47227;46.752;23.576;2023-01-08T08:27:44;116.70;;;18.00;;
61356;SDS011;47227;46.752;23.576;2023-01-08T08:30:10;85.30;;;16.00;;
61356;SDS011;47227;46.752;23.576;2023-01-08T08:32:38;102.50;;;17.60;;
61356;SDS011;47227;46.752;23.576;2023-01-08T08:35:04;78.80;;;16.30;;
61356;SDS011;47227;46.752;23.576;2023-01-08T08:37:31;72.20;;;15.70;;
61356;SDS011;47227;46.752;23.576;2023-01-08T08:39:58;107.40;;;17.40;;
61356;SDS011;47227;46.752;23.576;2023-01-08T08:42:24;85.60;;;16.80;;
61356;SDS011;47227;46.752;23.576;2023-01-08T08:44:51;56.10;;;16.30;;
61356;SDS011;47227;46.752;23.576;2023-01-08T08:47:17;132.60;;;19.50;;
61356;SDS011;47227;46.752;23.576;2023-01-08T08:49:44;75.00;;;17.30;;
61356;SDS011;47227;46.752;23.576;2023-01-08T08:52:10;57.60;;;16.00;;
61356;SDS011;47227;46.752;23.576;2023-01-08T08:54:37;58.50;;;18.10;;
61356;SDS011;47227;46.752;23.576;2023-01-08T08:57:07;129.20;;;18.30;;
61356;SDS011;47227;46.752;23.576;2023-01-08T08:59:34;142.30;;;19.50;;
61356;SDS011;47227;46.752;23.576;2023-01-08T09:02:01;124.70;;;18.40;;
61356;SDS011;47227;46.752;23.576;2023-01-08T09:04:29;123.20;;;17.60;;
61356;SDS011;47227;46.752;23.576;2023-01-08T09:06:57;168.00;;;19.10;;
61356;SDS011;47227;46.752;23.576;2023-01-08T09:09:24;112.90;;;18.10;;
61356;SDS011;47227;46.752;23.576;2023-01-08T09:11:52;80.50;;;18.20;;
61356;SDS011;47227;46.752;23.576;2023-01-08T09:14:19;76.40;;;18.10;;
61356;SDS011;47227;46.752;23.576;2023-01-08T09:16:46;204.00;;;22.40;;
61356;SDS011;47227;46.752;23.576;2023-01-08T09:19:13;191.20;;;19.80;;
61356;SDS011;47227;46.752;23.576;2023-01-08T09:21:40;235.50;;;21.50;;
61356;SDS011;47227;46.752;23.576;2023-01-08T09:24:07;202.70;;;22.10;;
61356;SDS011;47227;46.752;23.576;2023-01-08T09:26:34;151.30;;;20.20;;
61356;SDS011;47227;46.752;23.576;2023-01-08T09:29:01;108.40;;;21.10;;
61356;SDS011;47227;46.752;23.576;2023-01-08T09:31:28;208.60;;;22.20;;
61356;SDS011;47227;46.752;23.576;2023-01-08T09:33:55;117.90;;;18.80;;
61356;SDS011;47227;46.752;23.576;2023-01-08T09:36:21;81.20;;;18.60;;
61356;SDS011;47227;46.752;23.576;2023-01-08T09:38:48;53.40;;;17.90;;
61356;SDS011;47227;46.752;23.576;2023-01-08T09:41:17;54.90;;;19.10;;
61356;SDS011;47227;46.752;23.576;2023-01-08T09:43:49;50.70;;;18.00;;
61356;SDS011;47227;46.752;23.576;2023-01-08T09:46:18;51.50;;;18.00;;
61356;SDS011;47227;46.752;23.576;2023-01-08T09:48:48;73.00;;;17.30;;
61356;SDS011;47227;46.752;23.576;2023-01-08T09:51:17;85.40;;;18.00;;
61356;SDS011;47227;46.752;23.576;2023-01-08T09:53:47;113.60;;;18.40;;
61356;SDS011;47227;46.752;23.576;2023-01-08T09:56:18;83.70;;;18.60;;
61356;SDS011;47227;46.752;23.576;2023-01-08T09:58:53;132.20;;;19.90;;
61356;SDS011;47227;46.752;23.576;2023-01-08T10:01:25;96.00;;;19.50;;
61356;SDS011;47227;46.752;23.576;2023-01-08T10:04:13;93.60;;;19.20;;
61356;SDS011;47227;46.752;23.576;2023-01-08T10:06:45;73.80;;;19.00;;
61356;SDS011;47227;46.752;23.576;2023-01-08T10:09:23;73.10;;;18.80;;
61356;SDS011;47227;46.752;23.576;2023-01-08T10:11:53;109.20;;;19.30;;
61356;SDS011;47227;46.752;23.576;2023-01-08T10:14:24;138.50;;;21.00;;
61356;SDS011;47227;46.752;23.576;2023-01-08T10:16:56;119.80;;;21.50;;
61356;SDS011;47227;46.752;23.576;2023-01-08T10:19:26;131.20;;;23.20;;
61356;SDS011;47227;46.752;23.576;2023-01-08T10:21:52;117.70;;;22.60;;
61356;SDS011;47227;46.752;23.576;2023-01-08T10:24:35;177.40;;;22.00;;
61356;SDS011;47227;46.752;23.576;2023-01-08T10:27:07;149.00;;;23.10;;
61356;SDS011;47227;46.752;23.576;2023-01-08T10:29:38;77.50;;;20.50;;
61356;SDS011;47227;46.752;23.576;2023-01-08T10:32:08;71.70;;;21.90;;
61356;SDS011;47227;46.752;23.576;2023-01-08T10:34:41;135.90;;;21.50;;
61356;SDS011;47227;46.752;23.576;2023-01-08T10:37:15;155.60;;;22.30;;
61356;SDS011;47227;46.752;23.576;2023-01-08T10:39:48;72.60;;;19.20;;
61356;SDS011;47227;46.752;23.576;2023-01-08T10:42:16;89.50;;;20.00;;
61356;SDS011;47227;46.752;23.576;2023-01-08T10:44:46;60.70;;;19.20;;
61356;SDS011;47227;46.752;23.576;2023-01-08T10:49:48;94.40;;;19.10;;
61356;SDS011;47227;46.752;23.576;2023-01-08T10:57:57;43.90;;;17.70;;
61356;SDS011;47227;46.752;23.576;2023-01-08T11:00:28;95.50;;;20.00;;
61356;SDS011;47227;46.752;23.576;2023-01-08T11:02:58;84.20;;;19.90;;
61356;SDS011;47227;46.752;23.576;2023-01-08T11:05:30;83.10;;;19.90;;
61356;SDS011;47227;46.752;23.576;2023-01-08T11:08:02;48.20;;;18.60;;
61356;SDS011;47227;46.752;23.576;2023-01-08T11:10:32;121.60;;;20.70;;
61356;SDS011;47227;46.752;23.576;2023-01-08T11:13:02;115.40;;;20.70;;
61356;SDS011;47227;46.752;23.576;2023-01-08T11:15:33;116.80;;;21.50;;
61356;SDS011;47227;46.752;23.576;2023-01-08T11:18:04;128.40;;;23.50;;
61356;SDS011;47227;46.752;23.576;2023-01-08T11:20:32;150.40;;;25.20;;
61356;SDS011;47227;46.752;23.576;2023-01-08T11:23:09;94.80;;;23.40;;
61356;SDS011;47227;46.752;23.576;2023-01-08T11:25:47;280.50;;;27.70;;
61356;SDS011;47227;46.752;23.576;2023-01-08T11:28:26;211.40;;;23.80;;
61356;SDS011;47227;46.752;23.576;2023-01-08T11:31:03;115.50;;;26.10;;
61356;SDS011;47227;46.752;23.576;2023-01-08T11:33:37;139.90;;;26.60;;
61356;SDS011;47227;46.752;23.576;2023-01-08T11:36:10;110.40;;;25.80;;
61356;SDS011;47227;46.752;23.576;2023-01-08T11:38:45;127.40;;;25.20;;
61356;SDS011;47227;46.752;23.576;2023-01-08T11:41:31;96.50;;;26.70;;
61356;SDS011;47227;46.752;23.576;2023-01-08T11:44:16;121.80;;;26.20;;
61356;SDS011;47227;46.752;23.576;2023-01-08T11:47:01;273.00;;;31.00;;
61356;SDS011;47227;46.752;23.576;2023-01-08T11:52:40;216.50;;;28.10;;
61356;SDS011;47227;46.752;23.576;2023-01-08T11:55:18;65.60;;;24.10;;
61356;SDS011;47227;46.752;23.576;2023-01-08T11:58:07;95.70;;;22.40;;
61356;SDS011;47227;46.752;23.576;2023-01-08T12:00:53;96.10;;;22.20;;
61356;SDS011;47227;46.752;23.576;2023-01-08T12:03:35;76.60;;;22.70;;
61356;SDS011;47227;46.752;23.576;2023-01-08T12:06:14;68.00;;;27.40;;
61356;SDS011;47227;46.752;23.576;2023-01-08T12:09:07;62.10;;;24.10;;
61356;SDS011;47227;46.752;23.576;2023-01-08T12:11:46;61.90;;;22.90;;
61356;SDS011;47227;46.752;23.576;2023-01-08T12:14:27;63.00;;;20.10;;
61356;SDS011;47227;46.752;23.576;2023-01-08T12:17:31;40.80;;;19.10;;
61356;SDS011;47227;46.752;23.576;2023-01-08T12:20:16;83.10;;;20.00;;
61356;SDS011;47227;46.752;23.576;2023-01-08T12:22:56;119.90;;;21.30;;
61356;SDS011;47227;46.752;23.576;2023-01-08T12:25:43;132.10;;;23.10;;
61356;SDS011;47227;46.752;23.576;2023-01-08T12:28:43;115.50;;;23.10;;
61356;SDS011;47227;46.752;23.576;2023-01-08T12:31:28;130.30;;;21.70;;
61356;SDS011;47227;46.752;23.576;2023-01-08T12:34:14;180.20;;;23.30;;
61356;SDS011;47227;46.752;23.576;2023-01-08T12:36:48;98.80;;;22.70;;
61356;SDS011;47227;46.752;23.576;2023-01-08T12:39:20;170.70;;;25.30;;
61356;SDS011;47227;46.752;23.576;2023-01-08T12:41:53;90.40;;;22.70;;
61356;SDS011;47227;46.752;23.576;2023-01-08T12:44:33;217.30;;;25.10;;
61356;SDS011;47227;46.752;23.576;2023-01-08T12:47:03;128.80;;;24.50;;
61356;SDS011;47227;46.752;23.576;2023-01-08T12:49:41;94.80;;;23.50;;
61356;SDS011;47227;46.752;23.576;2023-01-08T12:52:21;172.30;;;24.50;;
61356;SDS011;47227;46.752;23.576;2023-01-08T12:55:15;109.40;;;23.00;;
61356;SDS011;47227;46.752;23.576;2023-01-08T12:58:03;151.90;;;26.70;;
61356;SDS011;47227;46.752;23.576;2023-01-08T13:00:46;136.30;;;24.50;;
61356;SDS011;47227;46.752;23.576;2023-01-08T13:03:23;182.00;;;25.20;;
61356;SDS011;47227;46.752;23.576;2023-01-08T13:06:03;139.20;;;23.90;;
61356;SDS011;47227;46.752;23.576;2023-01-08T13:08:34;156.10;;;26.20;;
61356;SDS011;47227;46.752;23.576;2023-01-08T13:11:02;75.90;;;20.40;;
61356;SDS011;47227;46.752;23.576;2023-01-08T13:13:30;75.60;;;22.60;;
61356;SDS011;47227;46.752;23.576;2023-01-08T13:18:51;128.80;;;22.10;;
61356;SDS011;47227;46.752;23.576;2023-01-08T13:29:54;225.80;;;23.60;;
61356;SDS011;47227;46.752;23.576;2023-01-08T13:32:36;199.30;;;25.20;;
61356;SDS011;47227;46.752;23.576;2023-01-08T13:35:19;219.90;;;25.70;;
61356;SDS011;47227;46.752;23.576;2023-01-08T13:37:50;201.40;;;25.10;;
61356;SDS011;47227;46.752;23.576;2023-01-08T13:40:48;239.90;;;26.60;;
61356;SDS011;47227;46.752;23.576;2023-01-08T13:43:20;357.00;;;28.20;;
61356;SDS011;47227;46.752;23.576;2023-01-08T13:46:03;261.50;;;27.30;;
61356;SDS011;47227;46.752;23.576;2023-01-08T13:48:36;387.00;;;32.00;;
61356;SDS011;47227;46.752;23.576;2023-01-08T13:51:05;430.20;;;33.80;;
61356;SDS011;47227;46.752;23.576;2023-01-08T13:53:54;315.10;;;29.50;;
61356;SDS011;47227;46.752;23.576;2023-01-08T13:56:21;412.00;;;31.70;;
61356;SDS011;47227;46.752;23.576;2023-01-08T13:58:52;141.90;;;25.70;;
61356;SDS011;47227;46.752;23.576;2023-01-08T14:01:20;130.20;;;26.60;;
61356;SDS011;47227;46.752;23.576;2023-01-08T14:03:47;207.60;;;25.80;;
61356;SDS011;47227;46.752;23.576;2023-01-08T14:06:16;92.60;;;22.90;;
61356;SDS011;47227;46.752;23.576;2023-01-08T14:08:49;122.50;;;21.40;;
61356;SDS011;47227;46.752;23.576;2023-01-08T14:11:20;80.30;;;20.00;;
61356;SDS011;47227;46.752;23.576;2023-01-08T14:13:49;76.40;;;20.10;;
61356;SDS011;47227;46.752;23.576;2023-01-08T14:17:18;67.90;;;19.50;;
61356;SDS011;47227;46.752;23.576;2023-01-08T14:20:34;52.60;;;17.80;;
61356;SDS011;47227;46.752;23.576;2023-01-08T14:23:56;77.50;;;17.70;;
61356;SDS011;47227;46.752;23.576;2023-01-08T14:27:24;44.50;;;17.30;;
61356;SDS011;47227;46.752;23.576;2023-01-08T14:30:14;143.20;;;21.00;;
61356;SDS011;47227;46.752;23.576;2023-01-08T14:33:42;131.10;;;18.00;;
61356;SDS011;47227;46.752;23.576;2023-01-08T14:36:54;142.30;;;17.90;;
61356;SDS011;47227;46.752;23.576;2023-01-08T14:39:31;59.80;;;16.80;;
61356;SDS011;47227;46.752;23.576;2023-01-08T14:43:11;93.20;;;16.90;;
61356;SDS011;47227;46.752;23.576;2023-01-08T14:46:30;181.70;;;18.70;;
61356;SDS011;47227;46.752;23.576;2023-01-08T14:49:17;98.40;;;21.20;;
61356;SDS011;47227;46.752;23.576;2023-01-08T14:52:44;87.70;;;18.50;;
61356;SDS011;47227;46.752;23.576;2023-01-08T14:55:57;118.60;;;19.10;;
61356;SDS011;47227;46.752;23.576;2023-01-08T14:59:09;111.10;;;20.30;;
61356;SDS011;47227;46.752;23.576;2023-01-08T15:02:37;90.90;;;20.80;;
61356;SDS011;47227;46.752;23.576;2023-01-08T15:05:47;241.10;;;24.20;;
61356;SDS011;47227;46.752;23.576;2023-01-08T15:09:19;221.80;;;27.50;;